createdAt,value
2022-11-29T00:01:20.663Z,104.03
2022-11-29T00:03:48.591Z,96.28
2022-11-29T00:06:21.163Z,101.63
2022-11-29T00:11:38.291Z,97.10
2022-11-29T00:14:06.703Z,97.60
2022-11-29T00:16:34.593Z,177.23
2022-11-29T00:19:02.379Z,102.60
2022-11-29T00:21:29.845Z,118.82
2022-11-29T00:23:57.079Z,117.15
2022-11-29T00:26:24.414Z,108.10
2022-11-29T00:28:51.832Z,107.38
2022-11-29T00:31:26.353Z,129.15
2022-11-29T00:33:53.492Z,106.15
2022-11-29T00:36:20.693Z,112.22
2022-11-29T00:38:47.848Z,96.30
2022-11-29T00:41:15.123Z,88.60
2022-11-29T00:43:42.166Z,108.72
2022-11-29T00:46:09.685Z,107.47
2022-11-29T00:48:37.212Z,103.40
2022-11-29T00:51:05.609Z,113.70
2022-11-29T00:53:34.320Z,98.32
2022-11-29T00:56:01.522Z,106.82
2022-11-29T00:58:29.147Z,111.18
2022-11-29T01:00:56.743Z,113.40
2022-11-29T01:03:24.663Z,90.18
2022-11-29T01:05:52.058Z,214.88
2022-11-29T01:08:19.492Z,118.63
2022-11-29T01:10:46.683Z,120.63
2022-11-29T01:13:13.623Z,97.78
2022-11-29T01:15:40.841Z,106.38
2022-11-29T01:18:07.822Z,105.38
2022-11-29T01:20:34.732Z,131.48
2022-11-29T01:23:01.783Z,104.30
2022-11-29T01:25:29.573Z,243.40
2022-11-29T01:27:56.623Z,83.22
2022-11-29T01:30:24.169Z,81.32
2022-11-29T01:32:51.582Z,126.55
2022-11-29T01:35:18.513Z,182.48
2022-11-29T01:37:45.497Z,129.57
2022-11-29T01:40:14.140Z,150.88
2022-11-29T01:42:41.333Z,83.55
2022-11-29T01:45:26.447Z,106.75
2022-11-29T01:47:56.580Z,127.05
2022-11-29T01:50:23.799Z,201.05
2022-11-29T01:52:51.221Z,124.65
2022-11-29T01:55:18.704Z,192.30
2022-11-29T01:57:46.062Z,90.35
2022-11-29T02:00:16.772Z,59.42
2022-11-29T02:02:47.120Z,64.70
2022-11-29T02:05:15.612Z,67.80
2022-11-29T02:07:44.964Z,100.57
2022-11-29T02:10:12.060Z,108.90
2022-11-29T02:12:54.804Z,112.97
2022-11-29T02:15:59.877Z,136.57
2022-11-29T02:18:51.703Z,74.38
2022-11-29T02:21:28.402Z,56.50
2022-11-29T02:24:13.893Z,91.57
2022-11-29T02:27:16.303Z,85.47
2022-11-29T02:29:58.722Z,97.65
2022-11-29T02:32:31.953Z,57.58
2022-11-29T02:35:41.092Z,145.45
2022-11-29T02:38:23.152Z,69.72
2022-11-29T02:41:22.974Z,100.68
2022-11-29T02:43:52.773Z,57.63
2022-11-29T02:46:43.182Z,85.10
2022-11-29T02:49:28.651Z,71.43
2022-11-29T02:52:06.320Z,102.47
2022-11-29T02:54:45.917Z,112.63
2022-11-29T02:57:35.002Z,98.10
2022-11-29T03:00:06.929Z,63.60
2022-11-29T03:02:39.168Z,78.78
2022-11-29T03:05:30.616Z,57.30
2022-11-29T03:08:10.820Z,52.63
2022-11-29T03:11:03.911Z,45.42
2022-11-29T03:14:06.272Z,71.97
2022-11-29T03:17:06.113Z,38.70
2022-11-29T03:20:07.410Z,47.72
2022-11-29T03:22:48.422Z,50.65
2022-11-29T03:25:40.375Z,38.90
2022-11-29T03:28:23.193Z,57.78
2022-11-29T03:31:16.816Z,53.75
2022-11-29T03:33:55.242Z,108.70
2022-11-29T03:36:28.253Z,45.22
2022-11-29T03:38:58.101Z,45.42
2022-11-29T03:41:46.722Z,129.75
2022-11-29T03:44:18.254Z,66.82
2022-11-29T03:46:59.112Z,90.70
2022-11-29T03:49:31.626Z,100.13
2022-11-29T03:52:07.562Z,81.65
2022-11-29T03:54:56.863Z,72.78
2022-11-29T03:57:35.263Z,39.88
2022-11-29T04:00:07.192Z,48.20
2022-11-29T04:02:57.885Z,78.65
2022-11-29T04:05:34.190Z,105.30
2022-11-29T04:08:20.023Z,157.93
2022-11-29T04:11:03.795Z,65.70
2022-11-29T04:13:57.792Z,118.93
2022-11-29T04:16:48.925Z,67.88
2022-11-29T04:19:30.544Z,57.85
2022-11-29T04:22:35.003Z,39.85
2022-11-29T04:25:19.533Z,69.55
2022-11-29T04:28:24.053Z,103.55
2022-11-29T04:31:00.908Z,83.00
2022-11-29T04:33:55.571Z,75.43
2022-11-29T04:36:28.494Z,61.53
2022-11-29T04:39:37.023Z,62.25
2022-11-29T04:42:29.162Z,68.15
2022-11-29T04:45:15.200Z,80.22
2022-11-29T04:47:51.082Z,122.80
2022-11-29T04:50:21.692Z,49.28
2022-11-29T04:53:17.203Z,103.70
2022-11-29T04:56:07.190Z,120.78
2022-11-29T04:58:36.531Z,118.63
2022-11-29T05:01:24.453Z,57.92
2022-11-29T05:04:03.433Z,51.40
2022-11-29T05:09:32.321Z,76.40
2022-11-29T05:12:13.973Z,47.75
2022-11-29T05:14:55.693Z,84.13
2022-11-29T05:17:33.572Z,56.63
2022-11-29T05:20:15.772Z,40.13
2022-11-29T05:22:46.180Z,67.88
2022-11-29T05:25:36.414Z,91.82
2022-11-29T05:28:10.655Z,46.00
2022-11-29T05:31:33.702Z,52.58
2022-11-29T05:34:34.672Z,64.88
2022-11-29T05:37:32.073Z,62.65
2022-11-29T05:40:01.972Z,40.50
2022-11-29T05:42:42.942Z,57.03
2022-11-29T05:45:31.113Z,52.05
2022-11-29T05:48:14.330Z,84.65
2022-11-29T05:51:04.452Z,93.43
2022-11-29T05:53:55.652Z,56.67
2022-11-29T05:57:00.840Z,48.35
2022-11-29T05:59:29.533Z,30.00
2022-11-29T06:01:59.319Z,73.20
2022-11-29T06:04:57.677Z,97.88
2022-11-29T06:07:41.123Z,97.80
2022-11-29T06:10:17.971Z,37.25
2022-11-29T06:13:22.560Z,51.92
2022-11-29T06:16:19.531Z,93.32
2022-11-29T06:19:05.042Z,48.20
2022-11-29T06:21:54.354Z,41.00
2022-11-29T06:24:40.510Z,36.28
2022-11-29T06:27:32.242Z,67.07
2022-11-29T06:30:09.811Z,39.67
2022-11-29T06:32:52.992Z,46.15
2022-11-29T06:35:46.012Z,55.33
2022-11-29T06:38:40.114Z,64.68
2022-11-29T06:41:07.823Z,48.60
2022-11-29T06:43:35.422Z,60.42
2022-11-29T06:46:46.031Z,78.90
2022-11-29T06:52:10.991Z,37.42
2022-11-29T06:55:07.994Z,30.00
2022-11-29T06:57:53.101Z,66.93
2022-11-29T07:00:31.919Z,49.03
2022-11-29T07:05:44.773Z,28.77
2022-11-29T07:08:23.512Z,41.58
2022-11-29T07:10:54.204Z,34.80
2022-11-29T07:13:21.749Z,44.85
2022-11-29T07:15:57.192Z,58.05
2022-11-29T07:19:09.110Z,33.25
2022-11-29T07:21:46.402Z,60.45
2022-11-29T07:24:43.121Z,36.45
2022-11-29T07:27:20.665Z,75.85
2022-11-29T07:30:05.374Z,88.25
2022-11-29T07:33:00.312Z,41.78
2022-11-29T07:35:46.729Z,40.72
2022-11-29T07:38:44.893Z,38.88
2022-11-29T07:41:33.533Z,41.42
2022-11-29T07:44:28.049Z,22.58
2022-11-29T07:46:55.015Z,55.92
2022-11-29T07:49:21.724Z,50.80
2022-11-29T07:51:49.042Z,57.08
2022-11-29T07:54:18.475Z,51.33
2022-11-29T07:56:45.567Z,77.88
2022-11-29T07:59:13.201Z,68.70
2022-11-29T08:01:41.068Z,55.20
2022-11-29T08:04:09.171Z,50.08
2022-11-29T08:06:37.178Z,34.55
2022-11-29T08:09:04.547Z,28.58
2022-11-29T08:11:31.847Z,37.42
2022-11-29T08:14:02.761Z,79.65
2022-11-29T08:16:30.083Z,104.57
2022-11-29T08:18:56.792Z,45.75
2022-11-29T08:21:23.691Z,115.43
2022-11-29T08:23:50.877Z,45.75
2022-11-29T08:26:19.251Z,147.55
2022-11-29T08:28:46.416Z,200.15
2022-11-29T08:31:14.051Z,400.67
2022-11-29T08:33:43.082Z,206.13
2022-11-29T08:36:13.607Z,116.32
2022-11-29T08:38:40.756Z,57.72
2022-11-29T08:41:09.124Z,83.75
2022-11-29T08:43:36.106Z,117.93
2022-11-29T08:46:03.059Z,132.70
2022-11-29T08:48:29.967Z,97.55
2022-11-29T08:50:57.337Z,117.43
2022-11-29T08:53:44.881Z,127.22
2022-11-29T08:56:59.639Z,89.53
2022-11-29T08:59:00.706Z,142.82
2022-11-29T09:01:29.621Z,152.20
2022-11-29T09:03:59.609Z,296.08
2022-11-29T09:06:28.838Z,173.95
2022-11-29T09:08:56.964Z,214.60
2022-11-29T09:11:25.809Z,166.23
2022-11-29T09:13:55.108Z,98.85
2022-11-29T09:16:25.789Z,175.75
2022-11-29T09:18:56.306Z,138.70
2022-11-29T09:21:25.179Z,78.82
2022-11-29T09:23:59.570Z,113.32
2022-11-29T09:26:29.557Z,187.45
2022-11-29T09:29:01.397Z,70.63
2022-11-29T09:31:29.836Z,186.93
2022-11-29T09:33:57.235Z,83.03
2022-11-29T09:36:28.557Z,94.90
2022-11-29T09:38:57.808Z,107.40
2022-11-29T09:42:03.060Z,88.22
2022-11-29T09:44:38.259Z,84.68
2022-11-29T09:47:20.838Z,121.78
2022-11-29T09:50:17.396Z,90.55
2022-11-29T09:53:12.656Z,55.33
2022-11-29T09:56:17.357Z,52.10
2022-11-29T09:59:09.890Z,84.40
2022-11-29T10:01:43.555Z,56.28
2022-11-29T10:04:16.204Z,59.25
2022-11-29T10:06:54.528Z,60.47
2022-11-29T10:09:37.818Z,59.83
2022-11-29T10:12:20.703Z,55.58
2022-11-29T10:14:58.368Z,80.30
2022-11-29T10:17:34.676Z,65.55
2022-11-29T10:20:23.377Z,53.60
2022-11-29T10:22:55.836Z,63.25
2022-11-29T10:25:36.699Z,48.50
2022-11-29T10:28:05.636Z,46.90
2022-11-29T10:30:34.676Z,40.25
2022-11-29T10:33:02.978Z,43.10
2022-11-29T10:35:30.747Z,43.95
2022-11-29T10:38:29.865Z,47.15
2022-11-29T10:40:50.588Z,49.28
2022-11-29T10:43:17.901Z,46.63
2022-11-29T10:45:51.154Z,42.40
2022-11-29T10:48:20.625Z,50.00
2022-11-29T10:50:49.937Z,41.45
2022-11-29T10:53:25.466Z,44.70
2022-11-29T10:56:01.207Z,39.13
2022-11-29T10:58:30.923Z,38.13
2022-11-29T11:01:01.341Z,40.75
2022-11-29T11:03:31.164Z,37.53
2022-11-29T11:06:07.116Z,35.38
2022-11-29T11:08:35.358Z,33.17
2022-11-29T11:11:04.679Z,35.92
2022-11-29T11:13:32.938Z,41.58
2022-11-29T11:16:09.975Z,36.63
2022-11-29T11:18:38.357Z,35.20
2022-11-29T11:21:09.797Z,35.65
2022-11-29T11:23:43.350Z,39.00
2022-11-29T11:26:13.757Z,33.85
2022-11-29T11:28:49.665Z,28.85
2022-11-29T11:31:26.870Z,35.33
2022-11-29T11:33:53.667Z,36.45
2022-11-29T11:36:20.381Z,36.47
2022-11-29T11:38:57.276Z,37.63
2022-11-29T11:41:45.260Z,35.25
2022-11-29T11:44:58.554Z,40.78
2022-11-29T11:47:28.002Z,34.47
2022-11-29T11:50:02.369Z,29.80
2022-11-29T11:52:34.756Z,27.02
2022-11-29T11:55:26.746Z,30.13
2022-11-29T11:58:14.325Z,28.77
2022-11-29T12:03:38.931Z,29.65
2022-11-29T12:08:54.738Z,24.20
2022-11-29T12:11:22.334Z,20.27
2022-11-29T12:13:55.181Z,20.13
2022-11-29T12:16:28.379Z,21.80
2022-11-29T12:19:07.662Z,20.63
2022-11-29T12:21:38.855Z,26.23
2022-11-29T12:24:31.172Z,20.10
2022-11-29T12:27:03.897Z,20.77
2022-11-29T12:29:33.224Z,21.33
2022-11-29T12:32:37.051Z,20.73
2022-11-29T12:35:25.184Z,15.40
2022-11-29T12:38:00.134Z,16.25
2022-11-29T12:40:36.973Z,17.25
2022-11-29T12:43:11.744Z,20.70
2022-11-29T12:45:54.245Z,19.40
2022-11-29T12:48:41.116Z,22.90
2022-11-29T12:51:16.133Z,22.08
2022-11-29T12:53:59.775Z,22.88
2022-11-29T12:56:28.396Z,28.17
2022-11-29T12:59:17.856Z,41.42
2022-11-29T13:02:16.203Z,20.15
2022-11-29T13:04:56.527Z,23.17
2022-11-29T13:07:57.978Z,26.83
2022-11-29T13:10:40.355Z,29.50
2022-11-29T13:13:18.205Z,24.17
2022-11-29T13:16:04.874Z,25.63
2022-11-29T13:18:55.015Z,27.05
2022-11-29T13:21:48.321Z,28.42
2022-11-29T13:24:26.205Z,28.15
2022-11-29T13:26:53.734Z,19.17
2022-11-29T13:29:22.615Z,26.95
2022-11-29T13:31:50.349Z,26.83
2022-11-29T13:34:25.451Z,22.33
2022-11-29T13:37:19.293Z,31.90
2022-11-29T13:39:52.405Z,20.08
2022-11-29T13:42:34.901Z,25.05
2022-11-29T13:45:16.685Z,20.80
2022-11-29T13:47:58.683Z,23.05
2022-11-29T13:50:46.136Z,22.83
2022-11-29T13:53:20.234Z,38.40
2022-11-29T13:56:02.013Z,32.08
2022-11-29T13:58:29.353Z,29.27
2022-11-29T14:01:02.551Z,28.15
2022-11-29T14:03:31.037Z,28.08
2022-11-29T14:06:37.555Z,33.92
2022-11-29T14:09:19.829Z,24.98
2022-11-29T14:11:52.175Z,29.50
2022-11-29T14:14:40.333Z,28.95
2022-11-29T14:17:59.745Z,23.90
2022-11-29T14:20:28.904Z,26.45
2022-11-29T14:23:04.508Z,28.33
2022-11-29T14:25:51.024Z,29.58
2022-11-29T14:28:21.900Z,37.88
2022-11-29T14:31:02.103Z,39.30
2022-11-29T14:33:47.685Z,33.70
2022-11-29T14:36:14.459Z,33.70
2022-11-29T14:39:14.943Z,60.30
2022-11-29T14:42:04.413Z,59.35
2022-11-29T14:44:32.784Z,53.67
2022-11-29T14:47:05.883Z,65.82
2022-11-29T14:49:39.969Z,59.03
2022-11-29T14:52:19.232Z,37.08
2022-11-29T14:54:56.148Z,34.60
2022-11-29T14:57:52.891Z,39.55
2022-11-29T15:00:21.949Z,35.83
2022-11-29T15:03:10.243Z,37.50
2022-11-29T15:06:10.549Z,41.90
2022-11-29T15:09:02.954Z,30.90
2022-11-29T15:11:37.355Z,33.22
2022-11-29T15:14:16.573Z,34.83
2022-11-29T15:17:08.294Z,33.28
2022-11-29T15:20:13.474Z,28.08
2022-11-29T15:22:52.874Z,23.00
2022-11-29T15:25:23.226Z,27.90
2022-11-29T15:27:56.107Z,19.70
2022-11-29T15:30:40.628Z,20.95
2022-11-29T15:33:41.198Z,26.77
2022-11-29T15:36:25.334Z,159.77
2022-11-29T15:38:57.762Z,58.13
2022-11-29T15:41:32.924Z,50.03
2022-11-29T15:44:05.184Z,95.30
2022-11-29T15:46:37.263Z,98.88
2022-11-29T15:49:25.840Z,119.65
2022-11-29T15:52:00.642Z,70.60
2022-11-29T15:54:56.063Z,52.65
2022-11-29T15:57:44.240Z,54.60
2022-11-29T16:00:23.773Z,44.95
2022-11-29T16:02:55.004Z,41.05
2022-11-29T16:05:37.153Z,38.25
2022-11-29T16:08:10.830Z,45.88
2022-11-29T16:10:51.664Z,37.30
2022-11-29T16:13:35.857Z,56.20
2022-11-29T16:16:27.665Z,74.75
2022-11-29T16:19:02.014Z,57.42
2022-11-29T16:21:33.744Z,43.42
2022-11-29T16:24:14.956Z,40.25
2022-11-29T16:26:48.934Z,42.33
2022-11-29T16:29:38.305Z,119.95
2022-11-29T16:32:31.335Z,82.97
2022-11-29T16:35:30.109Z,75.10
2022-11-29T16:38:01.545Z,48.75
2022-11-29T16:40:36.758Z,52.33
2022-11-29T16:43:06.348Z,95.88
2022-11-29T16:45:43.402Z,75.97
2022-11-29T16:48:26.942Z,28.45
2022-11-29T16:51:49.572Z,33.10
2022-11-29T16:54:26.193Z,23.10
2022-11-29T16:56:57.039Z,19.88
2022-11-29T16:59:28.030Z,20.73
2022-11-29T17:01:57.069Z,20.20
2022-11-29T17:04:26.215Z,16.38
2022-11-29T17:06:55.970Z,11.65
2022-11-29T17:09:29.220Z,35.25
2022-11-29T17:12:00.189Z,35.30
2022-11-29T17:14:33.814Z,31.67
2022-11-29T17:17:01.125Z,38.00
2022-11-29T17:19:31.358Z,20.33
2022-11-29T17:21:59.713Z,21.42
2022-11-29T17:24:26.744Z,29.50
2022-11-29T17:26:54.093Z,25.30
2022-11-29T17:29:21.472Z,23.20
2022-11-29T17:31:50.789Z,23.75
2022-11-29T17:34:18.634Z,27.20
2022-11-29T17:36:46.168Z,89.65
2022-11-29T17:39:15.774Z,82.65
2022-11-29T17:41:43.237Z,71.15
2022-11-29T17:44:10.478Z,59.10
2022-11-29T17:46:38.303Z,34.35
2022-11-29T17:49:07.673Z,27.27
2022-11-29T17:51:53.890Z,25.67
2022-11-29T17:54:22.601Z,37.85
2022-11-29T17:56:50.942Z,51.75
2022-11-29T17:59:18.344Z,31.40
2022-11-29T18:01:47.559Z,69.82
2022-11-29T18:04:14.889Z,121.85
2022-11-29T18:06:41.984Z,47.83
2022-11-29T18:09:10.656Z,37.67
2022-11-29T18:11:48.147Z,31.63
2022-11-29T18:14:18.440Z,30.42
2022-11-29T18:16:45.743Z,23.48
2022-11-29T18:19:16.724Z,27.23
2022-11-29T18:21:44.557Z,26.65
2022-11-29T18:24:11.872Z,25.42
2022-11-29T18:26:40.164Z,29.08
2022-11-29T18:29:07.915Z,20.83
2022-11-29T18:31:37.694Z,23.20
2022-11-29T18:34:07.321Z,18.58
2022-11-29T18:36:37.904Z,16.65
2022-11-29T18:39:09.014Z,19.15
2022-11-29T18:41:37.434Z,19.00
2022-11-29T18:44:09.876Z,18.42
2022-11-29T18:46:38.652Z,16.58
2022-11-29T18:49:08.192Z,16.48
2022-11-29T18:51:36.334Z,15.10
2022-11-29T18:54:05.588Z,20.63
2022-11-29T18:56:35.204Z,24.20
2022-11-29T18:59:04.812Z,24.70
2022-11-29T19:01:34.287Z,23.42
2022-11-29T19:04:02.324Z,17.55
2022-11-29T19:06:37.354Z,19.60
2022-11-29T19:09:07.906Z,22.45
2022-11-29T19:11:35.083Z,21.35
2022-11-29T19:14:05.510Z,23.45
2022-11-29T19:16:34.543Z,30.33
2022-11-29T19:19:02.347Z,25.88
2022-11-29T19:21:35.084Z,23.92
2022-11-29T19:24:04.095Z,19.75
2022-11-29T19:26:32.421Z,21.60
2022-11-29T19:29:00.840Z,19.92
2022-11-29T19:31:28.380Z,25.92
2022-11-29T19:33:56.551Z,48.08
2022-11-29T19:36:25.886Z,73.50
2022-11-29T19:38:54.655Z,50.15
2022-11-29T19:41:26.537Z,42.15
2022-11-29T19:43:56.584Z,47.10
2022-11-29T19:46:28.928Z,57.25
2022-11-29T19:48:57.828Z,38.35
2022-11-29T19:51:26.347Z,31.83
2022-11-29T19:53:56.516Z,40.20
2022-11-29T19:56:24.294Z,25.20
2022-11-29T19:58:51.673Z,43.08
2022-11-29T20:01:23.322Z,37.20
2022-11-29T20:03:50.937Z,29.10
2022-11-29T20:06:19.293Z,22.35
2022-11-29T20:08:47.225Z,26.70
2022-11-29T20:11:19.566Z,28.90
2022-11-29T20:14:00.453Z,36.60
2022-11-29T20:16:29.214Z,100.53
2022-11-29T20:18:57.686Z,77.93
2022-11-29T20:21:28.246Z,70.28
2022-11-29T20:24:02.092Z,137.93
2022-11-29T20:26:31.306Z,83.70
2022-11-29T20:28:59.555Z,88.97
2022-11-29T20:31:26.813Z,60.63
2022-11-29T20:33:57.689Z,30.98
2022-11-29T20:36:32.083Z,29.45
2022-11-29T20:39:29.418Z,29.27
2022-11-29T20:42:27.564Z,20.38
2022-11-29T20:44:57.743Z,16.13
2022-11-29T20:47:47.075Z,16.77
2022-11-29T20:50:23.275Z,27.58
2022-11-29T20:53:16.758Z,23.35
2022-11-29T20:55:47.893Z,25.85
2022-11-29T20:58:16.475Z,18.48
2022-11-29T21:00:43.937Z,20.33
2022-11-29T21:03:19.060Z,30.13
2022-11-29T21:05:47.022Z,48.05
2022-11-29T21:08:15.373Z,47.75
2022-11-29T21:10:42.783Z,42.70
2022-11-29T21:13:13.884Z,37.33
2022-11-29T21:15:41.862Z,39.13
2022-11-29T21:18:19.254Z,36.03
2022-11-29T21:20:49.654Z,36.15
2022-11-29T21:23:30.683Z,31.02
2022-11-29T21:26:23.534Z,32.42
2022-11-29T21:29:02.956Z,27.38
2022-11-29T21:31:30.704Z,11.40
2022-11-29T21:33:58.235Z,30.17
2022-11-29T21:36:25.825Z,26.33
2022-11-29T21:38:55.250Z,23.88
2022-11-29T21:41:23.824Z,23.83
2022-11-29T21:44:06.067Z,21.42
2022-11-29T21:46:35.428Z,24.42
2022-11-29T21:49:02.400Z,17.42
2022-11-29T21:51:29.755Z,19.10
2022-11-29T21:53:56.693Z,17.58
2022-11-29T21:56:23.993Z,16.05
2022-11-29T21:58:50.987Z,16.35
2022-11-29T22:01:20.322Z,14.65
2022-11-29T22:03:47.813Z,13.27
2022-11-29T22:06:18.769Z,15.40
2022-11-29T22:08:46.033Z,12.43
2022-11-29T22:11:16.196Z,14.32
2022-11-29T22:14:02.996Z,10.68
2022-11-29T22:16:31.289Z,12.82
2022-11-29T22:18:58.187Z,12.40
2022-11-29T22:21:25.173Z,10.60
2022-11-29T22:23:52.686Z,10.02
2022-11-29T22:26:21.893Z,11.15
2022-11-29T22:28:49.113Z,11.68
2022-11-29T22:31:16.739Z,11.25
2022-11-29T22:33:43.544Z,15.00
2022-11-29T22:36:12.278Z,10.40
2022-11-29T22:38:40.156Z,12.23
2022-11-29T22:41:09.909Z,9.30
2022-11-29T22:43:38.614Z,12.35
2022-11-29T22:46:16.132Z,10.07
2022-11-29T22:48:44.774Z,10.82
2022-11-29T22:51:17.635Z,9.02
2022-11-29T22:53:50.545Z,8.98
2022-11-29T22:56:18.214Z,5.65
2022-11-29T22:58:46.053Z,9.15
2022-11-29T23:01:18.201Z,8.55
2022-11-29T23:03:48.594Z,10.52
2022-11-29T23:06:18.042Z,11.32
2022-11-29T23:08:46.294Z,11.88
2022-11-29T23:11:18.974Z,6.88
2022-11-29T23:13:46.542Z,14.55
2022-11-29T23:16:16.687Z,11.63
2022-11-29T23:18:45.965Z,9.15
2022-11-29T23:21:14.186Z,10.73
2022-11-29T23:23:41.986Z,8.48
2022-11-29T23:26:09.845Z,12.07
2022-11-29T23:28:37.352Z,37.47
2022-11-29T23:31:04.205Z,17.38
2022-11-29T23:33:31.283Z,44.85
2022-11-29T23:36:03.017Z,21.92
2022-11-29T23:38:30.743Z,23.63
2022-11-29T23:40:57.992Z,17.40
2022-11-29T23:43:25.414Z,20.98
2022-11-29T23:45:52.994Z,22.40
2022-11-29T23:48:20.094Z,13.50
2022-11-29T23:50:47.374Z,11.27
2022-11-29T23:53:16.093Z,10.25
2022-11-29T23:55:43.304Z,14.85
2022-11-29T23:58:10.764Z,16.15
